createdAt,value
2022-12-08T00:00:25.223Z,2.40
2022-12-08T00:02:52.230Z,2.30
2022-12-08T00:05:37.342Z,2.30
2022-12-08T00:08:22.841Z,2.30
2022-12-08T00:10:50.152Z,2.30
2022-12-08T00:13:17.164Z,2.30
2022-12-08T00:15:44.316Z,2.30
2022-12-08T00:18:10.811Z,2.30
2022-12-08T00:20:38.325Z,2.30
2022-12-08T00:23:05.259Z,2.30
2022-12-08T00:25:32.528Z,2.30
2022-12-08T00:27:58.997Z,2.30
2022-12-08T00:30:26.325Z,2.30
2022-12-08T00:32:52.810Z,2.30
2022-12-08T00:35:19.707Z,2.30
2022-12-08T00:37:46.881Z,2.30
2022-12-08T00:40:13.813Z,2.30
2022-12-08T00:42:40.720Z,2.30
2022-12-08T00:45:07.309Z,2.30
2022-12-08T00:47:34.256Z,2.30
2022-12-08T00:50:00.783Z,2.30
2022-12-08T00:52:27.327Z,2.30
2022-12-08T00:54:54.202Z,2.30
2022-12-08T00:57:21.401Z,2.30
2022-12-08T00:59:48.284Z,2.30
2022-12-08T01:02:14.797Z,2.30
2022-12-08T01:04:42.131Z,2.40
2022-12-08T01:07:09.015Z,2.30
2022-12-08T01:09:36.035Z,2.30
2022-12-08T01:12:02.568Z,2.50
2022-12-08T01:14:29.062Z,2.40
2022-12-08T01:16:56.039Z,2.40
2022-12-08T01:19:22.981Z,2.40
2022-12-08T01:21:49.464Z,2.40
2022-12-08T01:24:18.102Z,2.40
2022-12-08T01:26:44.636Z,2.40
2022-12-08T01:29:11.523Z,2.40
2022-12-08T01:31:38.918Z,2.50
2022-12-08T01:34:05.584Z,2.50
2022-12-08T01:36:32.916Z,2.50
2022-12-08T01:39:01.892Z,2.50
2022-12-08T01:41:29.864Z,2.60
2022-12-08T01:43:56.736Z,2.60
2022-12-08T01:46:23.529Z,2.60
2022-12-08T01:48:52.357Z,2.60
2022-12-08T01:51:19.325Z,2.60
2022-12-08T01:53:46.693Z,2.60
2022-12-08T01:56:17.385Z,2.60
2022-12-08T01:58:47.099Z,2.70
2022-12-08T02:01:14.027Z,2.70
2022-12-08T02:03:47.525Z,2.70
2022-12-08T02:06:14.869Z,2.70
2022-12-08T02:08:41.526Z,2.60
2022-12-08T02:11:11.912Z,2.60
2022-12-08T02:13:39.908Z,2.60
2022-12-08T02:16:18.741Z,2.70
2022-12-08T02:18:50.510Z,2.60
2022-12-08T02:21:38.091Z,2.60
2022-12-08T02:24:14.017Z,2.60
2022-12-08T02:26:55.829Z,2.60
2022-12-08T02:29:22.710Z,2.60
2022-12-08T02:32:12.563Z,2.60
2022-12-08T02:34:58.029Z,2.60
2022-12-08T02:37:38.074Z,2.70
2022-12-08T02:40:08.025Z,2.70
2022-12-08T02:42:40.252Z,2.80
2022-12-08T02:45:11.226Z,2.80
2022-12-08T02:47:38.546Z,2.80
2022-12-08T02:50:05.662Z,2.80
2022-12-08T02:52:32.748Z,2.80
2022-12-08T02:55:02.986Z,2.90
2022-12-08T02:57:53.532Z,2.90
2022-12-08T03:00:21.878Z,2.90
2022-12-08T03:03:07.169Z,2.90
2022-12-08T03:05:45.973Z,2.90
2022-12-08T03:08:33.412Z,2.90
2022-12-08T03:11:03.895Z,2.90
2022-12-08T03:13:36.731Z,2.90
2022-12-08T03:16:04.456Z,2.90
2022-12-08T03:18:32.221Z,2.90
2022-12-08T03:20:59.564Z,2.90
2022-12-08T03:23:26.405Z,2.90
2022-12-08T03:25:58.540Z,2.90
2022-12-08T03:28:25.173Z,2.90
2022-12-08T03:30:53.787Z,2.90
2022-12-08T03:33:25.327Z,2.90
2022-12-08T03:35:53.048Z,3.00
2022-12-08T03:38:20.175Z,3.00
2022-12-08T03:41:10.035Z,2.90
2022-12-08T03:43:37.433Z,3.00
2022-12-08T03:46:04.033Z,3.00
2022-12-08T03:48:31.069Z,3.90
2022-12-08T03:50:57.538Z,3.00
2022-12-08T03:56:16.559Z,3.00
2022-12-08T03:58:44.110Z,3.00
2022-12-08T04:01:11.234Z,3.00
2022-12-08T04:03:38.194Z,3.00
2022-12-08T04:06:05.081Z,3.00
2022-12-08T04:08:31.981Z,3.00
2022-12-08T04:10:58.533Z,3.00
2022-12-08T04:13:25.458Z,3.10
2022-12-08T04:15:52.000Z,2.60
2022-12-08T04:18:18.503Z,3.00
2022-12-08T04:20:46.095Z,3.00
2022-12-08T04:23:12.684Z,3.00
2022-12-08T04:25:39.930Z,3.10
2022-12-08T04:28:06.389Z,3.10
2022-12-08T04:30:33.379Z,3.10
2022-12-08T04:33:00.358Z,3.10
2022-12-08T04:35:28.116Z,3.10
2022-12-08T04:37:54.678Z,3.10
2022-12-08T04:40:21.722Z,3.10
2022-12-08T04:42:48.349Z,3.10
2022-12-08T04:45:15.430Z,3.10
2022-12-08T04:47:42.403Z,3.10
2022-12-08T04:50:09.176Z,3.20
2022-12-08T04:52:36.161Z,3.10
2022-12-08T04:55:02.717Z,3.10
2022-12-08T04:57:29.617Z,3.10
2022-12-08T04:59:56.074Z,3.10
2022-12-08T05:02:23.019Z,3.20
2022-12-08T05:04:49.573Z,3.10
2022-12-08T05:07:16.047Z,3.10
2022-12-08T05:09:43.057Z,3.10
2022-12-08T05:12:09.538Z,3.20
2022-12-08T05:14:36.480Z,3.00
2022-12-08T05:17:09.101Z,3.00
2022-12-08T05:19:36.093Z,3.00
2022-12-08T05:22:05.210Z,3.00
2022-12-08T05:24:31.756Z,3.00
2022-12-08T05:26:58.326Z,3.00
2022-12-08T05:29:25.281Z,3.00
2022-12-08T05:31:51.804Z,3.00
2022-12-08T05:34:18.811Z,3.10
2022-12-08T05:36:45.300Z,2.90
2022-12-08T05:39:15.076Z,2.90
2022-12-08T05:41:42.086Z,2.80
2022-12-08T05:44:09.338Z,2.80
2022-12-08T05:46:36.566Z,2.80
2022-12-08T05:49:03.815Z,2.70
2022-12-08T05:51:30.745Z,2.80
2022-12-08T05:53:57.629Z,2.70
2022-12-08T05:56:24.480Z,2.70
2022-12-08T05:58:51.453Z,2.60
2022-12-08T06:01:22.568Z,2.60
2022-12-08T06:03:49.048Z,2.60
2022-12-08T06:06:16.009Z,2.60
2022-12-08T06:08:42.930Z,2.50
2022-12-08T06:11:09.621Z,2.50
2022-12-08T06:13:36.671Z,2.40
2022-12-08T06:16:04.446Z,2.40
2022-12-08T06:18:32.813Z,2.40
2022-12-08T06:21:04.416Z,2.40
2022-12-08T06:23:30.977Z,2.40
2022-12-08T06:26:05.523Z,2.30
2022-12-08T06:28:32.186Z,2.30
2022-12-08T06:30:59.098Z,2.20
2022-12-08T06:33:26.821Z,2.30
2022-12-08T06:35:53.343Z,2.20
2022-12-08T06:38:20.241Z,2.10
2022-12-08T06:40:52.702Z,2.10
2022-12-08T06:43:19.626Z,2.10
2022-12-08T06:45:46.160Z,2.10
2022-12-08T06:48:12.685Z,2.10
2022-12-08T06:50:39.623Z,3.20
2022-12-08T06:53:06.110Z,2.10
2022-12-08T06:55:57.874Z,2.20
2022-12-08T06:58:20.057Z,2.30
2022-12-08T07:00:46.641Z,2.20
2022-12-08T07:03:13.330Z,2.20
2022-12-08T07:05:40.314Z,2.20
2022-12-08T07:08:08.253Z,2.30
2022-12-08T07:10:35.245Z,2.30
2022-12-08T07:13:02.046Z,2.30
2022-12-08T07:15:28.534Z,2.30
2022-12-08T07:17:59.891Z,2.40
2022-12-08T07:20:27.177Z,2.40
2022-12-08T07:22:54.026Z,2.30
2022-12-08T07:25:20.962Z,2.30
2022-12-08T07:27:47.965Z,2.30
2022-12-08T07:30:15.574Z,2.30
2022-12-08T07:32:42.072Z,2.30
2022-12-08T07:35:10.444Z,2.30
2022-12-08T07:37:37.901Z,2.30
2022-12-08T07:40:05.330Z,2.20
2022-12-08T07:42:32.556Z,2.10
2022-12-08T07:44:59.529Z,2.00
2022-12-08T07:47:26.036Z,2.00
2022-12-08T07:49:52.539Z,2.00
2022-12-08T07:52:19.006Z,2.00
2022-12-08T07:54:45.953Z,1.90
2022-12-08T07:57:12.509Z,1.90
2022-12-08T07:59:39.040Z,1.80
2022-12-08T08:02:23.736Z,1.80
2022-12-08T08:04:51.607Z,1.90
2022-12-08T08:07:18.557Z,2.00
2022-12-08T08:09:45.664Z,1.90
2022-12-08T08:12:30.668Z,1.90
2022-12-08T08:14:58.886Z,1.90
2022-12-08T08:17:25.896Z,1.80
2022-12-08T08:19:52.931Z,1.80
2022-12-08T08:22:19.390Z,1.80
2022-12-08T08:24:45.860Z,1.80
2022-12-08T08:27:13.176Z,1.80
2022-12-08T08:29:39.636Z,1.80
2022-12-08T08:32:06.154Z,1.90
2022-12-08T08:34:33.087Z,2.00
2022-12-08T08:36:59.949Z,2.00
2022-12-08T08:39:26.599Z,2.00
2022-12-08T08:41:53.585Z,2.00
2022-12-08T08:44:20.047Z,2.00
2022-12-08T08:46:46.624Z,2.00
2022-12-08T08:49:13.178Z,2.00
2022-12-08T08:51:40.178Z,2.00
2022-12-08T08:54:06.794Z,2.00
2022-12-08T08:59:21.168Z,2.00
2022-12-08T09:01:48.112Z,2.00
2022-12-08T09:04:14.871Z,2.00
2022-12-08T09:06:43.539Z,1.90
2022-12-08T09:09:10.660Z,1.90
2022-12-08T09:11:37.295Z,2.00
2022-12-08T09:14:03.826Z,2.00
2022-12-08T09:19:18.285Z,1.90
2022-12-08T09:21:44.776Z,2.00
2022-12-08T09:24:15.587Z,2.00
2022-12-08T09:26:43.699Z,2.00
2022-12-08T09:29:10.406Z,2.00
2022-12-08T09:31:37.432Z,3.00
2022-12-08T09:34:04.603Z,2.20
2022-12-08T09:36:31.294Z,2.30
2022-12-08T09:38:58.264Z,2.40
2022-12-08T09:41:40.282Z,2.60
2022-12-08T09:44:27.076Z,2.70
2022-12-08T09:46:55.278Z,2.80
2022-12-08T09:49:28.628Z,3.00
2022-12-08T09:51:55.105Z,2.90
2022-12-08T09:54:24.806Z,2.90
2022-12-08T09:56:54.382Z,2.90
2022-12-08T09:59:22.523Z,2.80
2022-12-08T10:01:49.387Z,2.90
2022-12-08T10:04:32.740Z,2.90
2022-12-08T10:07:05.479Z,2.80
2022-12-08T10:09:38.630Z,2.80
2022-12-08T10:12:08.233Z,2.80
2022-12-08T10:14:41.732Z,2.80
2022-12-08T10:17:21.373Z,2.80
2022-12-08T10:19:48.264Z,2.70
2022-12-08T10:22:23.040Z,2.70
2022-12-08T10:24:55.496Z,2.60
2022-12-08T10:27:22.760Z,2.60
2022-12-08T10:29:49.328Z,2.60
2022-12-08T10:32:20.216Z,2.60
2022-12-08T10:35:01.059Z,2.60
2022-12-08T10:37:27.611Z,2.70
2022-12-08T10:40:16.434Z,2.70
2022-12-08T10:42:46.521Z,2.80
2022-12-08T10:45:22.981Z,2.80
2022-12-08T10:47:57.216Z,2.90
2022-12-08T10:50:44.066Z,2.90
2022-12-08T10:53:15.217Z,3.00
2022-12-08T10:55:46.332Z,3.00
2022-12-08T10:58:30.458Z,3.10
2022-12-08T11:01:17.904Z,3.20
2022-12-08T11:03:48.924Z,3.30
2022-12-08T11:06:24.654Z,3.30
2022-12-08T11:08:52.764Z,3.40
2022-12-08T11:11:25.837Z,3.40
2022-12-08T11:13:55.770Z,3.40
2022-12-08T11:16:23.242Z,3.40
2022-12-08T11:18:55.504Z,3.30
2022-12-08T11:21:30.471Z,3.30
2022-12-08T11:23:56.940Z,3.30
2022-12-08T11:26:28.904Z,3.20
2022-12-08T11:28:56.048Z,3.30
2022-12-08T11:31:27.910Z,3.20
2022-12-08T11:33:54.468Z,3.30
2022-12-08T11:36:22.022Z,3.30
2022-12-08T11:38:52.367Z,3.30
2022-12-08T11:41:20.997Z,3.30
2022-12-08T11:43:50.539Z,3.40
2022-12-08T11:46:23.777Z,3.50
2022-12-08T11:48:53.531Z,3.50
2022-12-08T11:51:32.054Z,3.50
2022-12-08T11:54:07.305Z,3.40
2022-12-08T11:56:36.362Z,3.30
2022-12-08T11:59:06.913Z,3.40
2022-12-08T12:01:42.218Z,3.30
2022-12-08T12:04:22.220Z,3.40
2022-12-08T12:06:56.289Z,3.40
2022-12-08T12:09:41.893Z,3.50
2022-12-08T12:12:20.632Z,3.50
2022-12-08T12:14:50.669Z,3.60
2022-12-08T12:17:32.758Z,3.70
2022-12-08T12:20:00.044Z,3.80
2022-12-08T12:22:29.619Z,3.80
2022-12-08T12:24:56.568Z,3.80
2022-12-08T12:27:32.954Z,3.90
2022-12-08T12:30:04.280Z,3.90
2022-12-08T12:33:00.685Z,3.90
2022-12-08T12:35:30.558Z,3.90
2022-12-08T12:37:59.720Z,3.90
2022-12-08T12:40:27.538Z,3.90
2022-12-08T12:42:56.818Z,3.90
2022-12-08T12:45:26.375Z,3.80
2022-12-08T12:48:13.216Z,3.80
2022-12-08T12:50:45.022Z,3.90
2022-12-08T12:53:20.772Z,3.80
2022-12-08T12:55:56.904Z,3.80
2022-12-08T12:58:29.948Z,3.80
2022-12-08T13:01:12.263Z,3.70
2022-12-08T13:03:47.145Z,3.70
2022-12-08T13:06:15.437Z,3.70
2022-12-08T13:08:49.898Z,3.70
2022-12-08T13:11:16.905Z,3.70
2022-12-08T13:13:57.434Z,3.70
2022-12-08T13:16:25.370Z,3.70
2022-12-08T13:19:04.031Z,3.70
2022-12-08T13:21:36.044Z,3.70
2022-12-08T13:24:17.636Z,3.70
2022-12-08T13:26:47.273Z,3.70
2022-12-08T13:29:15.252Z,3.70
2022-12-08T13:31:50.407Z,3.60
2022-12-08T13:34:19.994Z,3.60
2022-12-08T13:36:57.476Z,3.50
2022-12-08T13:39:26.608Z,3.40
2022-12-08T13:42:06.006Z,3.40
2022-12-08T13:47:37.221Z,3.30
2022-12-08T13:58:38.184Z,3.20
2022-12-08T14:01:07.725Z,3.20
2022-12-08T14:04:04.319Z,3.20
2022-12-08T14:06:35.208Z,3.10
2022-12-08T14:09:10.233Z,3.00
2022-12-08T14:11:43.766Z,2.90
2022-12-08T14:14:14.525Z,2.80
2022-12-08T14:16:50.232Z,2.70
2022-12-08T14:19:18.769Z,2.60
2022-12-08T14:21:54.753Z,2.60
2022-12-08T14:24:21.794Z,2.40
2022-12-08T14:26:50.520Z,2.50
2022-12-08T14:29:43.375Z,2.60
2022-12-08T14:32:28.672Z,2.60
2022-12-08T14:34:57.154Z,2.70
2022-12-08T14:37:25.529Z,2.70
2022-12-08T14:39:52.237Z,2.70
2022-12-08T14:42:24.186Z,2.60
2022-12-08T14:44:59.136Z,2.40
2022-12-08T14:47:28.867Z,2.30
2022-12-08T14:49:55.741Z,2.10
2022-12-08T14:52:22.633Z,2.00
2022-12-08T14:54:50.398Z,1.90
2022-12-08T14:57:17.378Z,1.80
2022-12-08T14:59:44.938Z,1.70
2022-12-08T15:02:22.122Z,1.60
2022-12-08T15:04:53.794Z,1.50
2022-12-08T15:07:22.648Z,1.40
2022-12-08T15:10:05.730Z,1.30
2022-12-08T15:12:33.655Z,1.30
2022-12-08T15:15:09.429Z,1.30
2022-12-08T15:17:41.785Z,1.20
2022-12-08T15:20:33.217Z,1.30
2022-12-08T15:23:02.216Z,1.30
2022-12-08T15:25:28.708Z,1.40
2022-12-08T15:27:56.949Z,1.40
2022-12-08T15:30:26.583Z,1.50
2022-12-08T15:32:54.059Z,1.50
2022-12-08T15:35:21.582Z,1.50
2022-12-08T15:37:48.489Z,1.50
2022-12-08T15:40:15.541Z,1.50
2022-12-08T15:42:42.423Z,1.50
2022-12-08T15:45:14.107Z,1.60
2022-12-08T15:47:41.487Z,1.40
2022-12-08T15:50:14.912Z,1.50
2022-12-08T15:52:42.411Z,1.40
2022-12-08T15:55:13.355Z,1.30
2022-12-08T16:00:51.980Z,1.20
2022-12-08T16:03:59.887Z,1.10
2022-12-08T16:06:57.523Z,1.00
2022-12-08T16:09:11.147Z,0.90
2022-12-08T16:12:06.714Z,0.90
2022-12-08T16:15:39.754Z,0.90
2022-12-08T16:17:21.127Z,1.10
2022-12-08T16:19:48.016Z,1.10
2022-12-08T16:25:22.323Z,1.20
2022-12-08T16:28:12.533Z,1.10
2022-12-08T16:30:40.723Z,1.10
2022-12-08T16:33:07.576Z,1.10
2022-12-08T16:35:34.817Z,1.10
2022-12-08T16:38:01.380Z,1.10
2022-12-08T16:40:28.520Z,1.10
2022-12-08T16:42:55.420Z,1.10
2022-12-08T16:45:23.574Z,1.10
2022-12-08T16:47:51.280Z,1.20
2022-12-08T16:50:31.378Z,1.10
2022-12-08T16:53:02.816Z,1.10
2022-12-08T16:55:29.838Z,1.10
2022-12-08T16:57:57.099Z,1.10
2022-12-08T17:00:24.942Z,1.10
2022-12-08T17:02:52.060Z,1.20
2022-12-08T17:05:19.807Z,1.20
2022-12-08T17:07:47.196Z,1.20
2022-12-08T17:10:16.144Z,1.20
2022-12-08T17:12:43.242Z,1.30
2022-12-08T17:15:11.568Z,1.30
2022-12-08T17:17:39.831Z,1.30
2022-12-08T17:20:08.192Z,1.30
2022-12-08T17:22:35.627Z,1.20
2022-12-08T17:25:02.693Z,1.20
2022-12-08T17:27:29.755Z,1.10
2022-12-08T17:29:56.647Z,1.10
2022-12-08T17:32:23.599Z,1.00
2022-12-08T17:34:50.558Z,1.00
2022-12-08T17:37:17.352Z,1.00
2022-12-08T17:39:44.285Z,1.00
2022-12-08T17:42:10.845Z,1.00
2022-12-08T17:44:37.781Z,0.90
2022-12-08T17:47:04.846Z,0.90
2022-12-08T17:49:32.750Z,0.90
2022-12-08T17:52:01.144Z,1.00
2022-12-08T17:54:28.432Z,1.00
2022-12-08T17:56:58.245Z,1.10
2022-12-08T17:59:25.599Z,1.10
2022-12-08T18:01:56.786Z,1.20
2022-12-08T18:04:23.962Z,1.20
2022-12-08T18:06:50.600Z,1.20
2022-12-08T18:09:17.957Z,1.30
2022-12-08T18:11:45.037Z,1.30
2022-12-08T18:14:12.221Z,1.40
2022-12-08T18:16:39.948Z,1.40
2022-12-08T18:19:07.244Z,1.30
2022-12-08T18:21:33.959Z,1.40
2022-12-08T18:24:00.710Z,1.40
2022-12-08T18:26:27.739Z,1.40
2022-12-08T18:28:54.213Z,1.40
2022-12-08T18:31:21.908Z,1.50
2022-12-08T18:33:48.883Z,1.50
2022-12-08T18:36:17.581Z,1.50
2022-12-08T18:38:44.546Z,1.60
2022-12-08T18:41:12.992Z,1.60
2022-12-08T18:43:39.527Z,1.60
2022-12-08T18:46:09.615Z,1.60
2022-12-08T18:48:37.654Z,1.60
2022-12-08T18:51:04.849Z,1.60
2022-12-08T18:53:31.936Z,1.60
2022-12-08T18:55:58.405Z,1.70
2022-12-08T18:58:27.421Z,1.60
2022-12-08T19:00:53.930Z,1.60
2022-12-08T19:03:20.452Z,1.60
2022-12-08T19:05:47.398Z,1.60
2022-12-08T19:08:13.980Z,1.60
2022-12-08T19:10:40.603Z,1.60
2022-12-08T19:13:07.850Z,1.60
2022-12-08T19:15:34.824Z,1.60
2022-12-08T19:18:01.869Z,1.60
2022-12-08T19:20:28.754Z,1.60
2022-12-08T19:22:55.636Z,1.60
2022-12-08T19:25:22.587Z,1.60
2022-12-08T19:27:49.515Z,1.70
2022-12-08T19:30:16.270Z,1.80
2022-12-08T19:32:42.807Z,2.30
2022-12-08T19:35:09.830Z,1.70
2022-12-08T19:37:36.325Z,1.70
2022-12-08T19:40:22.936Z,1.70
2022-12-08T19:43:09.688Z,1.70
2022-12-08T19:45:36.879Z,1.60
2022-12-08T19:48:04.653Z,1.60
2022-12-08T19:50:37.680Z,1.60
2022-12-08T19:53:05.310Z,1.60
2022-12-08T19:55:32.546Z,1.60
2022-12-08T19:58:01.503Z,1.50
2022-12-08T20:00:29.710Z,1.50
2022-12-08T20:02:56.421Z,1.50
2022-12-08T20:05:23.816Z,1.50
2022-12-08T20:07:50.569Z,1.40
2022-12-08T20:10:19.697Z,1.40
2022-12-08T20:12:46.167Z,1.50
2022-12-08T20:15:13.232Z,1.50
2022-12-08T20:17:39.916Z,1.60
2022-12-08T20:20:07.828Z,1.50
2022-12-08T20:25:22.213Z,1.50
2022-12-08T20:27:49.101Z,1.40
2022-12-08T20:30:17.414Z,1.30
2022-12-08T20:32:44.918Z,1.30
2022-12-08T20:35:11.392Z,1.30
2022-12-08T20:37:38.136Z,1.30
2022-12-08T20:40:06.489Z,1.30
2022-12-08T20:42:33.058Z,1.30
2022-12-08T20:44:59.963Z,1.30
2022-12-08T20:47:26.621Z,1.40
2022-12-08T20:49:53.670Z,1.30
2022-12-08T20:52:20.713Z,1.30
2022-12-08T20:54:47.711Z,1.30
2022-12-08T20:57:14.223Z,1.20
2022-12-08T20:59:41.221Z,1.20
2022-12-08T21:02:09.359Z,1.10
2022-12-08T21:04:36.806Z,1.10
2022-12-08T21:07:04.041Z,1.10
2022-12-08T21:09:30.680Z,1.10
2022-12-08T21:11:57.779Z,1.10
2022-12-08T21:14:24.692Z,1.10
2022-12-08T21:16:52.034Z,1.10
2022-12-08T21:19:19.790Z,1.10
2022-12-08T21:21:46.710Z,1.10
2022-12-08T21:24:14.103Z,1.00
2022-12-08T21:26:40.701Z,1.00
2022-12-08T21:29:07.239Z,1.00
2022-12-08T21:31:34.204Z,0.90
2022-12-08T21:34:00.981Z,0.90
2022-12-08T21:36:27.481Z,0.90
2022-12-08T21:38:58.591Z,1.00
2022-12-08T21:41:44.346Z,1.00
2022-12-08T21:44:12.684Z,1.00
2022-12-08T21:46:39.726Z,1.00
2022-12-08T21:49:06.732Z,1.00
2022-12-08T21:51:38.020Z,1.00
2022-12-08T21:54:04.959Z,1.00
2022-12-08T21:56:31.512Z,0.90
2022-12-08T21:58:58.388Z,0.90
2022-12-08T22:01:25.693Z,0.90
2022-12-08T22:03:52.317Z,0.90
2022-12-08T22:06:19.383Z,0.90
2022-12-08T22:08:45.969Z,0.90
2022-12-08T22:11:12.867Z,0.90
2022-12-08T22:13:40.929Z,0.80
2022-12-08T22:16:08.697Z,0.80
2022-12-08T22:18:36.076Z,0.70
2022-12-08T22:21:07.990Z,0.60
2022-12-08T22:23:35.038Z,0.60
2022-12-08T22:26:02.539Z,0.50
2022-12-08T22:28:31.851Z,0.50
2022-12-08T22:30:58.496Z,0.50
2022-12-08T22:33:25.106Z,0.50
2022-12-08T22:35:56.438Z,0.00
2022-12-08T22:38:23.049Z,0.30
2022-12-08T22:40:50.267Z,0.30
2022-12-08T22:43:16.942Z,0.30
2022-12-08T22:45:44.280Z,0.30
2022-12-08T22:48:10.982Z,0.30
2022-12-08T22:50:37.796Z,0.30
2022-12-08T22:53:05.382Z,0.30
2022-12-08T22:55:32.233Z,0.20
2022-12-08T22:57:59.349Z,0.20
2022-12-08T23:00:25.841Z,0.20
2022-12-08T23:02:53.027Z,0.10
2022-12-08T23:05:19.637Z,0.10
2022-12-08T23:07:46.713Z,0.00
2022-12-08T23:10:13.434Z,0.00
2022-12-08T23:12:39.982Z,-0.10
2022-12-08T23:15:07.228Z,-0.10
2022-12-08T23:17:33.908Z,-0.20
2022-12-08T23:20:01.352Z,-0.20
2022-12-08T23:22:28.012Z,-0.20
2022-12-08T23:24:54.891Z,-0.20
2022-12-08T23:27:21.829Z,-0.20
2022-12-08T23:29:48.356Z,-0.20
2022-12-08T23:32:15.461Z,-0.10
2022-12-08T23:34:42.215Z,-0.20
2022-12-08T23:37:08.861Z,-0.20
2022-12-08T23:39:35.795Z,-0.30
2022-12-08T23:42:02.516Z,-0.40
2022-12-08T23:44:29.165Z,-0.30
2022-12-08T23:46:56.270Z,-0.40
2022-12-08T23:49:23.765Z,-0.40
2022-12-08T23:51:51.083Z,-0.30
2022-12-08T23:54:17.569Z,-0.20
2022-12-08T23:56:44.474Z,0.10
2022-12-08T23:59:11.413Z,0.00
